Hauptseite
METAR-TAF:

METAR-TAF

Flughäfen :

Tela, Honduras

Breite: 15-43N, Länge: 087-29W, Höhe: 3 m

Beobachtung

Neuester Wetterbericht von vor 6 Stunden und 6 Minuten, um 06:00 UTC
Windstille
Temperatur 27°C
Luftfeuchtigkeit 94%
Luftdruck 1011 hPa
Sichtweite 10 km oder mehr
Leicht bewölkt in der Höhe von 2600 ft
Leicht bewölkt in der Höhe von 2800 ft, Kumulonimbus.
Durchbrochene Bewölkung in der Höhe von 8000 ft
Gewitter,

METAR: MHTE 220600Z 00000KT 9999 TS FEW026 FEW028CB BKN080 27/26 Q1011 A2985

Zeit: 06:06 (12:06 UTC)


TAF: fehlend

Wetterbeobachtungen und Prognosen von mehr als 4000 Flughäfen (METAR und TAF Bericht).

Die verfügbaren Stationen werden durch gelbe und rote Markierungen auf der Karte dargestellt.

Führen Sie die Maus auf sie, um den Namen der Station zu sehen.

Darauf klicken, um die Beobachtung von Wetterbeobachtungen und Prognosen zu sehen.

Um die Karte zu ändern : klicken Sie auf den grünen Tasten mit einem schwarzen Kreuz Zum Vergrößern, auf den grünen Button mit einem Gedankenstrich zu verkleinern, oder auf die grünen Pfeile für benachbarte Karten.


METAR-TAF: